Time;durP1;ratioP1;P1;durP2;ratioP2;P2;SDS_P1;SDS_P2;PMS_P1;PMS_P2;Temp;Humidity;BMP_temperature;BMP_pressure;BME280_temperature;BME280_humidity;BME280_pressure;Samples;Min_cycle;Max_cycle;Signal;HPM_P1;HPM_P2
2022/03/29 03:01:28;;;;;;;1.10;1.00;;;14.20;46.20;;;;;;5633647;23;20498;-74
2022/03/29 03:03:55;;;;;;;1.20;1.10;;;14.20;46.70;;;;;;4955430;28;20443;-74
2022/03/29 03:06:22;;;;;;;1.20;1.10;;;14.10;46.90;;;;;;4955190;28;20526;-74
2022/03/29 03:08:49;;;;;;;1.23;1.13;;;13.90;47.10;;;;;;4955276;28;20570;-74
2022/03/29 03:11:15;;;;;;;1.60;1.50;;;13.80;47.10;;;;;;4954918;28;21044;-74
2022/03/29 03:13:42;;;;;;;1.20;1.10;;;13.70;47.60;;;;;;4955958;28;20505;-74
2022/03/29 03:16:09;;;;;;;1.27;1.17;;;13.60;47.60;;;;;;4954723;28;20802;-75
2022/03/29 03:18:37;;;;;;;1.10;1.00;;;13.50;47.70;;;;;;4955461;28;20443;-75
2022/03/29 03:21:04;;;;;;;1.27;1.17;;;13.50;47.90;;;;;;4959615;28;20482;-73
2022/03/29 03:23:31;;;;;;;1.20;1.10;;;13.20;48.00;;;;;;4974381;28;20446;-73
2022/03/29 03:25:57;;;;;;;1.30;1.20;;;13.10;48.50;;;;;;4960135;29;20992;-75
2022/03/29 03:28:24;;;;;;;1.70;1.60;;;13.00;49.10;;;;;;4955275;28;20940;-75
2022/03/29 03:30:53;;;;;;;1.30;1.10;;;13.00;49.00;;;;;;4954852;28;21064;-75
2022/03/29 03:33:19;;;;;;;1.30;1.20;;;12.90;49.30;;;;;;4955307;28;20461;-75
2022/03/29 03:35:47;;;;;;;1.20;1.10;;;13.00;49.30;;;;;;4955272;28;20556;-75
2022/03/29 03:38:14;;;;;;;1.30;1.20;;;13.20;49.00;;;;;;4955239;28;20494;-74
2022/03/29 03:40:42;;;;;;;1.20;1.10;;;13.30;49.10;;;;;;4954551;28;20828;-74
2022/03/29 03:43:09;;;;;;;1.40;1.30;;;13.40;49.00;;;;;;4955047;28;20457;-74
2022/03/29 03:45:35;;;;;;;1.40;1.30;;;13.40;49.20;;;;;;4955157;28;20818;-75
2022/03/29 03:48:02;;;;;;;1.30;1.20;;;13.50;49.00;;;;;;4955195;28;20447;-74
2022/03/29 03:50:29;;;;;;;1.50;1.40;;;13.40;48.90;;;;;;4955116;28;20446;-74
2022/03/29 03:52:57;;;;;;;1.37;1.27;;;13.40;49.00;;;;;;4954899;28;20537;-74
2022/03/29 03:55:23;;;;;;;1.67;1.57;;;13.30;49.40;;;;;;4954884;28;20455;-75
2022/03/29 03:57:50;;;;;;;1.57;1.47;;;13.40;49.60;;;;;;4955681;28;20490;-74
2022/03/29 04:00:21;;;;;;;1.40;1.30;;;13.30;49.40;;;;;;4954690;28;20873;-75
2022/03/29 04:02:49;;;;;;;1.13;1.03;;;13.20;50.00;;;;;;4954429;28;20489;-75
2022/03/29 04:05:16;;;;;;;1.23;1.13;;;13.20;50.30;;;;;;4954650;28;20549;-75
2022/03/29 04:07:43;;;;;;;1.30;1.20;;;13.20;50.20;;;;;;4956309;28;21029;-74
2022/03/29 04:10:11;;;;;;;1.20;1.10;;;13.10;50.40;;;;;;4958110;28;20446;-75
2022/03/29 04:12:38;;;;;;;1.20;1.10;;;13.20;50.20;;;;;;4958290;28;20502;-75
2022/03/29 04:15:06;;;;;;;1.30;1.20;;;13.30;50.40;;;;;;4958860;28;20485;-75
2022/03/29 04:17:34;;;;;;;1.30;1.20;;;13.30;50.60;;;;;;4958871;28;20482;-74
2022/03/29 04:20:01;;;;;;;1.30;1.20;;;13.30;50.30;;;;;;4958129;28;20461;-74
2022/03/29 04:22:28;;;;;;;1.40;1.27;;;13.30;50.40;;;;;;4958456;28;20471;-75
2022/03/29 04:24:54;;;;;;;1.20;1.00;;;13.40;50.50;;;;;;4958037;28;20450;-74
2022/03/29 04:27:22;;;;;;;1.30;1.20;;;13.40;50.40;;;;;;4958012;28;20497;-74
2022/03/29 04:29:49;;;;;;;1.80;1.43;;;13.50;50.50;;;;;;4957911;28;20454;-75
2022/03/29 04:32:16;;;;;;;1.57;1.47;;;13.50;50.40;;;;;;4957864;28;20525;-75
2022/03/29 04:34:44;;;;;;;1.97;1.27;;;13.60;50.00;;;;;;4957979;28;20459;-75
2022/03/29 04:37:11;;;;;;;1.30;1.20;;;13.60;50.00;;;;;;4957882;28;20573;-73
2022/03/29 04:39:38;;;;;;;1.37;1.27;;;13.60;49.70;;;;;;4957842;28;20871;-74
2022/03/29 04:42:06;;;;;;;1.73;1.63;;;13.60;50.10;;;;;;4957710;28;20510;-75
2022/03/29 04:44:34;;;;;;;1.60;1.50;;;13.50;50.60;;;;;;4957885;28;20459;-75
2022/03/29 04:47:01;;;;;;;1.50;1.40;;;13.60;50.60;;;;;;4957629;28;21014;-74
2022/03/29 04:49:27;;;;;;;1.30;1.20;;;13.50;50.20;;;;;;4957606;28;20482;-75
2022/03/29 04:51:54;;;;;;;1.60;1.50;;;13.40;50.70;;;;;;4957445;28;20467;-75
2022/03/29 04:54:21;;;;;;;1.43;1.33;;;13.50;50.80;;;;;;4957485;28;20463;-75
2022/03/29 04:56:47;;;;;;;1.50;1.40;;;13.50;50.70;;;;;;4957272;28;20490;-75
2022/03/29 04:59:14;;;;;;;1.23;1.13;;;13.40;50.90;;;;;;4957865;28;20451;-74
2022/03/29 05:01:43;;;;;;;1.20;1.10;;;13.50;50.70;;;;;;4958663;28;20570;-75
2022/03/29 05:04:09;;;;;;;1.30;1.13;;;13.40;50.90;;;;;;4958676;28;20820;-75
2022/03/29 05:06:36;;;;;;;1.40;1.30;;;13.40;51.20;;;;;;4958460;28;20489;-75
2022/03/29 05:09:04;;;;;;;1.70;1.60;;;13.40;51.40;;;;;;4958696;28;20451;-75
2022/03/29 05:11:31;;;;;;;1.50;1.40;;;13.40;51.60;;;;;;4958343;28;20514;-75
2022/03/29 05:13:57;;;;;;;1.30;1.20;;;13.40;51.90;;;;;;4958570;28;20454;-72
2022/03/29 05:16:24;;;;;;;1.53;1.40;;;13.40;51.90;;;;;;4958959;28;20506;-74
2022/03/29 05:18:53;;;;;;;1.20;1.10;;;13.40;51.60;;;;;;4958014;28;20487;-75
2022/03/29 05:21:19;;;;;;;1.73;1.07;;;13.40;51.60;;;;;;4958804;28;20510;-75
2022/03/29 05:23:46;;;;;;;1.40;1.30;;;13.40;51.90;;;;;;4958462;28;20451;-74
2022/03/29 05:26:13;;;;;;;1.20;1.10;;;13.40;51.90;;;;;;4958080;28;20451;-75
2022/03/29 05:28:40;;;;;;;1.30;1.20;;;13.20;52.00;;;;;;4958256;28;20458;-74
2022/03/29 05:31:06;;;;;;;1.67;1.47;;;13.10;52.40;;;;;;4958511;28;20471;-75
2022/03/29 05:33:33;;;;;;;1.30;1.20;;;13.20;52.20;;;;;;4958016;28;20462;-75
2022/03/29 05:36:03;;;;;;;1.33;1.23;;;13.20;52.10;;;;;;4958071;28;20447;-75
2022/03/29 05:38:29;;;;;;;1.60;1.50;;;13.20;52.40;;;;;;4957586;28;20497;-74
2022/03/29 05:40:56;;;;;;;1.43;1.33;;;13.20;52.40;;;;;;4956690;28;20498;-74
2022/03/29 05:43:23;;;;;;;1.23;1.13;;;13.30;51.80;;;;;;4956888;28;20455;-74
2022/03/29 05:48:52;;;;;;;1.40;1.30;;;13.30;52.00;;;;;;4956666;28;20869;-74
2022/03/29 05:48:55;;;;;;;1.30;1.20;;;13.30;52.30;;;;;;4956400;29;20426;-75
2022/03/29 05:51:24;;;;;;;1.20;1.10;;;13.40;52.00;;;;;;4956675;28;20494;-75
2022/03/29 05:53:51;;;;;;;1.60;1.50;;;13.50;52.20;;;;;;4956492;29;20451;-75
2022/03/29 05:56:18;;;;;;;1.30;1.20;;;13.40;52.30;;;;;;4956525;28;20572;-75
2022/03/29 05:58:45;;;;;;;1.43;1.33;;;13.40;52.30;;;;;;4956442;28;20482;-74
2022/03/29 06:01:11;;;;;;;1.13;1.03;;;13.50;52.40;;;;;;4956160;28;20534;-74
2022/03/29 06:03:38;;;;;;;1.67;1.57;;;13.50;52.40;;;;;;4957168;28;20454;-75
2022/03/29 06:06:05;;;;;;;1.40;1.30;;;13.50;52.60;;;;;;4956567;28;20467;-74
2022/03/29 06:08:33;;;;;;;1.40;1.30;;;13.60;52.10;;;;;;4956360;28;20455;-73
2022/03/29 06:11:00;;;;;;;1.30;1.20;;;13.50;51.90;;;;;;4956253;28;20530;-75
2022/03/29 06:13:27;;;;;;;1.23;1.13;;;13.50;52.00;;;;;;4956019;28;20514;-75
2022/03/29 06:15:54;;;;;;;1.30;1.20;;;13.60;52.10;;;;;;4956282;28;20497;-75
2022/03/29 06:18:21;;;;;;;1.10;1.00;;;13.60;52.40;;;;;;4955774;28;20840;-74
2022/03/29 06:20:48;;;;;;;1.20;1.10;;;13.60;52.50;;;;;;4956202;28;20471;-74
2022/03/29 06:23:14;;;;;;;1.60;1.50;;;13.70;53.00;;;;;;4956022;28;20498;-73
2022/03/29 06:25:42;;;;;;;1.30;1.20;;;13.70;52.60;;;;;;4956215;28;20464;-74
2022/03/29 06:28:11;;;;;;;1.30;1.20;;;13.80;52.80;;;;;;4955725;28;20826;-75
2022/03/29 06:30:38;;;;;;;1.40;1.27;;;13.70;53.10;;;;;;4955062;28;20466;-73
2022/03/29 06:33:05;;;;;;;1.40;1.30;;;13.80;52.50;;;;;;4955625;28;20820;-74
2022/03/29 06:35:34;;;;;;;1.50;1.40;;;13.90;52.50;;;;;;4955964;28;20459;-74
2022/03/29 06:38:01;;;;;;;1.10;1.00;;;14.10;52.20;;;;;;4956088;28;20483;-75
2022/03/29 06:40:29;;;;;;;1.50;1.40;;;13.90;50.80;;;;;;4955710;28;20447;-73
2022/03/29 06:42:57;;;;;;;1.50;1.40;;;13.60;51.70;;;;;;4955874;28;20455;-74
2022/03/29 06:45:24;;;;;;;1.50;1.40;;;13.10;51.40;;;;;;4955955;28;20454;-73
2022/03/29 06:47:51;;;;;;;2.13;1.50;;;12.80;52.00;;;;;;4955973;28;20455;-75
2022/03/29 06:50:17;;;;;;;1.47;1.37;;;12.80;52.30;;;;;;4955905;28;20502;-74
2022/03/29 06:52:47;;;;;;;1.60;1.50;;;12.90;52.30;;;;;;4955772;28;20506;-74
2022/03/29 06:55:16;;;;;;;1.57;1.47;;;12.80;52.70;;;;;;4955977;28;20455;-75
2022/03/29 06:57:43;;;;;;;1.30;1.20;;;12.90;52.10;;;;;;4955842;28;20507;-74
2022/03/29 07:00:12;;;;;;;1.33;1.23;;;12.90;52.90;;;;;;4955634;28;20971;-75
2022/03/29 07:02:39;;;;;;;1.40;1.30;;;13.10;51.90;;;;;;4955417;28;20478;-74
2022/03/29 07:05:07;;;;;;;1.67;1.57;;;13.30;52.10;;;;;;4955846;28;20486;-74
2022/03/29 07:07:34;;;;;;;1.53;1.43;;;13.40;51.50;;;;;;4955793;28;20456;-75
2022/03/29 07:12:49;;;;;;;1.40;1.30;;;13.80;52.10;;;;;;4955695;28;20534;-75
2022/03/29 07:15:17;;;;;;;1.47;1.37;;;14.00;51.70;;;;;;4955594;28;20484;-75
2022/03/29 07:17:44;;;;;;;1.77;1.67;;;14.20;51.50;;;;;;4955687;29;20483;-75
2022/03/29 07:20:12;;;;;;;1.40;1.30;;;14.30;51.00;;;;;;4955598;28;20451;-75
2022/03/29 07:22:39;;;;;;;1.70;1.60;;;14.60;51.30;;;;;;4955362;28;20466;-74
2022/03/29 07:25:07;;;;;;;1.30;1.20;;;14.70;50.70;;;;;;4955307;28;20450;-74
2022/03/29 07:27:33;;;;;;;1.53;1.40;;;14.90;50.60;;;;;;4957499;28;20490;-74
2022/03/29 07:30:00;;;;;;;1.57;1.47;;;15.10;50.80;;;;;;4955222;28;20447;-75
2022/03/29 07:32:28;;;;;;;1.40;1.30;;;15.00;50.70;;;;;;4955258;28;20537;-74
2022/03/29 07:34:55;;;;;;;1.83;1.73;;;15.10;50.70;;;;;;4955405;28;20486;-75
2022/03/29 07:37:22;;;;;;;1.47;1.37;;;15.20;50.50;;;;;;4955539;28;20489;-76
2022/03/29 07:39:53;;;;;;;1.53;1.43;;;15.30;50.50;;;;;;4955615;28;20490;-76
2022/03/29 07:42:21;;;;;;;1.50;1.40;;;15.50;49.90;;;;;;4958508;28;20489;-75
2022/03/29 07:44:49;;;;;;;1.27;1.17;;;15.50;49.80;;;;;;4959348;28;20546;-75
2022/03/29 07:47:18;;;;;;;1.60;1.50;;;15.50;49.20;;;;;;4961007;28;20502;-75
2022/03/29 07:49:47;;;;;;;1.30;1.20;;;15.40;51.00;;;;;;4959372;28;20506;-75
2022/03/29 07:52:14;;;;;;;1.20;1.10;;;15.20;52.10;;;;;;4959249;28;20476;-72
2022/03/29 07:54:41;;;;;;;1.77;1.63;;;14.90;53.70;;;;;;4959008;28;20513;-74
2022/03/29 07:57:08;;;;;;;1.40;1.30;;;15.00;53.70;;;;;;4958884;28;21005;-72
2022/03/29 07:59:37;;;;;;;1.40;1.30;;;14.80;54.00;;;;;;4958975;28;20490;-73
2022/03/29 08:02:04;;;;;;;1.60;1.50;;;15.00;54.80;;;;;;4958725;28;20498;-75
2022/03/29 08:04:31;;;;;;;1.50;1.40;;;15.20;53.30;;;;;;4958819;28;20498;-74
2022/03/29 08:06:59;;;;;;;1.43;1.33;;;15.10;53.10;;;;;;4958853;28;20867;-74
2022/03/29 08:09:27;;;;;;;1.40;1.30;;;15.00;53.70;;;;;;4958726;28;20882;-74
2022/03/29 08:11:55;;;;;;;2.00;1.27;;;14.80;53.30;;;;;;4958358;28;20505;-74
2022/03/29 08:14:21;;;;;;;1.40;1.20;;;14.80;53.20;;;;;;4958676;28;20481;-74
2022/03/29 08:16:48;;;;;;;1.10;1.00;;;15.30;51.60;;;;;;4958347;28;21005;-75
2022/03/29 08:19:15;;;;;;;1.53;1.43;;;15.70;50.50;;;;;;4958443;28;20486;-73
2022/03/29 08:21:51;;;;;;;1.40;1.30;;;15.50;50.10;;;;;;4958185;28;20510;-73
2022/03/29 08:24:20;;;;;;;1.20;1.10;;;15.70;51.20;;;;;;4958455;28;20462;-74
2022/03/29 08:26:49;;;;;;;1.37;1.27;;;15.80;49.00;;;;;;4958235;28;20553;-74
2022/03/29 08:29:16;;;;;;;1.30;1.20;;;16.20;50.60;;;;;;4958048;28;20945;-73
2022/03/29 08:31:44;;;;;;;1.10;1.00;;;16.40;48.60;;;;;;4959086;28;20462;-73
2022/03/29 08:34:10;;;;;;;1.33;1.23;;;16.60;47.40;;;;;;4958938;28;20451;-74
2022/03/29 08:36:38;;;;;;;1.53;1.20;;;16.40;47.60;;;;;;4958390;28;20605;-75
2022/03/29 08:39:05;;;;;;;1.10;1.03;;;16.60;48.00;;;;;;4958171;28;20921;-75
2022/03/29 08:41:37;;;;;;;1.30;1.20;;;16.50;48.20;;;;;;4958397;28;20470;-74
2022/03/29 08:44:04;;;;;;;1.10;1.00;;;16.70;48.70;;;;;;4958145;28;20521;-75
2022/03/29 08:46:33;;;;;;;1.60;1.50;;;16.90;48.40;;;;;;4958047;28;20446;-74
2022/03/29 08:49:01;;;;;;;1.20;1.10;;;17.10;47.40;;;;;;4957638;28;21021;-75
2022/03/29 08:51:28;;;;;;;1.40;1.30;;;17.20;47.00;;;;;;4957885;28;20478;-75
2022/03/29 08:53:54;;;;;;;1.30;1.20;;;17.40;46.40;;;;;;4957089;28;20502;-75
2022/03/29 08:56:21;;;;;;;1.27;1.17;;;17.60;46.30;;;;;;4957981;28;20443;-75
2022/03/29 08:58:49;;;;;;;1.47;1.37;;;17.70;45.70;;;;;;4957838;28;20908;-75
2022/03/29 09:01:19;;;;;;;1.30;1.20;;;17.90;45.70;;;;;;4957271;28;21080;-74
2022/03/29 09:03:47;;;;;;;1.40;1.30;;;18.00;43.20;;;;;;4958120;28;20837;-75
2022/03/29 09:06:14;;;;;;;2.10;1.37;;;18.20;43.70;;;;;;4957666;28;20455;-74
2022/03/29 09:08:45;;;;;;;1.20;1.10;;;18.20;43.60;;;;;;4957561;28;20450;-76
2022/03/29 09:11:13;;;;;;;1.33;1.23;;;18.40;44.60;;;;;;4957501;28;20466;-75
2022/03/29 09:13:40;;;;;;;1.20;1.10;;;18.60;42.60;;;;;;4958599;28;20877;-75
2022/03/29 09:16:26;;;;;;;1.20;1.10;;;18.70;42.60;;;;;;4957160;28;20838;-77
2022/03/29 09:18:55;;;;;;;1.30;1.20;;;18.60;41.30;;;;;;4957068;28;20814;-75
2022/03/29 09:21:24;;;;;;;1.40;1.30;;;18.70;41.70;;;;;;4957284;28;20479;-74
2022/03/29 09:24:06;;;;;;;1.30;1.20;;;18.60;40.80;;;;;;4957030;28;21013;-75
2022/03/29 09:26:33;;;;;;;1.40;1.30;;;18.40;42.10;;;;;;4957443;28;20526;-75
2022/03/29 09:29:00;;;;;;;1.30;1.20;;;18.50;41.70;;;;;;4957421;28;20443;-77
2022/03/29 09:31:29;;;;;;;1.23;1.13;;;18.40;41.60;;;;;;4956761;28;21049;-76
2022/03/29 09:34:11;;;;;;;1.30;1.20;;;18.30;41.70;;;;;;4957293;28;20450;-77
2022/03/29 09:36:43;;;;;;;1.20;1.10;;;18.40;43.10;;;;;;4957407;28;20493;-76
2022/03/29 09:39:10;;;;;;;1.23;1.13;;;18.60;42.40;;;;;;4957134;28;20490;-77
2022/03/29 09:41:41;;;;;;;1.83;1.20;;;18.70;42.20;;;;;;4956979;28;20493;-76
2022/03/29 09:44:10;;;;;;;1.23;1.13;;;19.00;41.80;;;;;;4956771;28;20518;-76
2022/03/29 09:46:55;;;;;;;1.27;1.17;;;19.20;41.70;;;;;;4956906;28;20868;-76
2022/03/29 09:49:23;;;;;;;1.30;1.20;;;19.50;42.10;;;;;;4957008;28;20431;-76
2022/03/29 09:52:09;;;;;;;1.13;1.03;;;19.50;40.40;;;;;;4956858;28;20525;-75
2022/03/29 09:54:35;;;;;;;1.50;1.40;;;19.50;41.00;;;;;;4956458;28;20986;-75
2022/03/29 09:57:04;;;;;;;1.80;1.70;;;19.70;41.80;;;;;;4956440;28;20981;-76
2022/03/29 09:59:31;;;;;;;1.60;1.50;;;19.70;41.70;;;;;;4956619;28;20493;-75
2022/03/29 10:02:00;;;;;;;1.30;1.20;;;19.30;43.50;;;;;;4956309;28;20478;-77
2022/03/29 10:04:29;;;;;;;1.47;1.37;;;18.90;44.20;;;;;;4956241;28;21060;-76
2022/03/29 10:06:57;;;;;;;1.50;1.40;;;18.60;45.40;;;;;;4956760;28;20454;-76
2022/03/29 10:09:26;;;;;;;1.40;1.30;;;18.70;45.40;;;;;;4956442;28;20502;-76
2022/03/29 10:11:55;;;;;;;1.50;1.40;;;18.70;44.80;;;;;;4956302;28;20474;-76
2022/03/29 10:14:22;;;;;;;1.50;1.40;;;18.80;43.90;;;;;;4957819;28;20509;-75
2022/03/29 10:16:51;;;;;;;1.63;1.43;;;18.50;44.70;;;;;;4956938;28;20462;-76
2022/03/29 10:19:21;;;;;;;1.50;1.40;;;18.40;45.60;;;;;;4956824;28;20491;-76
2022/03/29 10:21:48;;;;;;;1.60;1.50;;;18.60;45.70;;;;;;4955981;28;20542;-76
2022/03/29 10:24:16;;;;;;;1.40;1.30;;;18.90;45.60;;;;;;4956127;28;20509;-75
2022/03/29 10:26:44;;;;;;;1.63;1.50;;;18.80;44.60;;;;;;4956186;28;20455;-76
2022/03/29 10:29:12;;;;;;;1.43;1.33;;;18.70;44.50;;;;;;4956172;28;20451;-75
2022/03/29 10:31:48;;;;;;;1.50;1.27;;;18.80;46.10;;;;;;4955832;28;20564;-76
2022/03/29 10:34:21;;;;;;;1.30;1.20;;;19.00;44.40;;;;;;4956074;28;20430;-75
2022/03/29 10:37:07;;;;;;;1.30;1.20;;;19.00;44.70;;;;;;4956046;28;20435;-75
2022/03/29 10:39:54;;;;;;;1.40;1.30;;;18.90;44.50;;;;;;4955935;28;20565;-75
2022/03/29 10:42:36;;;;;;;1.70;1.43;;;18.90;45.80;;;;;;4955888;28;20475;-75
2022/03/29 10:45:15;;;;;;;1.30;1.20;;;18.90;46.20;;;;;;4955803;28;20439;-75
2022/03/29 10:47:43;;;;;;;1.47;1.37;;;18.70;44.90;;;;;;4956722;28;20462;-76
2022/03/29 10:50:13;;;;;;;1.37;1.27;;;18.60;45.10;;;;;;4955487;28;20930;-76
2022/03/29 10:52:42;;;;;;;1.40;1.10;;;18.70;45.90;;;;;;4955410;28;20826;-76
2022/03/29 10:55:17;;;;;;;1.50;1.40;;;18.70;44.70;;;;;;4955863;28;20461;-76
2022/03/29 10:58:09;;;;;;;1.40;1.30;;;18.80;44.00;;;;;;4962352;28;20455;-76
2022/03/29 11:00:36;;;;;;;1.30;1.20;;;18.70;44.20;;;;;;4974958;28;20966;-75
2022/03/29 11:03:15;;;;;;;1.30;1.20;;;18.80;43.70;;;;;;4979959;28;20430;-76
2022/03/29 11:06:06;;;;;;;1.57;1.47;;;18.90;43.40;;;;;;4961407;28;20431;-76
2022/03/29 11:08:32;;;;;;;3.40;1.70;;;18.80;44.40;;;;;;4959404;28;20510;-75
2022/03/29 11:11:00;;;;;;;1.33;1.23;;;18.70;45.00;;;;;;4957586;28;20839;-77
2022/03/29 11:13:27;;;;;;;1.30;1.20;;;18.70;45.10;;;;;;4957470;28;20541;-76
2022/03/29 11:15:57;;;;;;;1.40;1.30;;;18.70;45.20;;;;;;4957063;28;20513;-76
2022/03/29 11:18:41;;;;;;;1.37;1.27;;;18.70;44.80;;;;;;4959082;28;20453;-75
2022/03/29 11:21:10;;;;;;;1.30;1.20;;;18.60;44.70;;;;;;4957599;28;20518;-76
2022/03/29 11:23:38;;;;;;;1.20;1.10;;;18.60;44.30;;;;;;4956333;28;20966;-75
2022/03/29 11:26:06;;;;;;;1.40;1.30;;;18.40;44.00;;;;;;4956633;28;20922;-75
2022/03/29 11:28:33;;;;;;;1.70;1.20;;;18.60;44.50;;;;;;4957669;28;20831;-75
2022/03/29 11:31:00;;;;;;;1.70;1.60;;;18.60;44.80;;;;;;4957110;28;20471;-75
2022/03/29 11:33:34;;;;;;;1.37;1.27;;;18.60;45.30;;;;;;4957450;28;20474;-74
2022/03/29 11:36:07;;;;;;;2.80;1.57;;;18.60;45.30;;;;;;4957145;28;20483;-76
2022/03/29 11:38:36;;;;;;;1.60;1.50;;;18.80;46.10;;;;;;4956262;28;20435;-75
2022/03/29 11:41:04;;;;;;;1.87;1.57;;;19.20;45.60;;;;;;4956665;28;20517;-75
2022/03/29 11:43:32;;;;;;;1.53;1.43;;;19.40;45.00;;;;;;4957403;28;20462;-75
2022/03/29 11:45:59;;;;;;;1.70;1.60;;;19.70;44.10;;;;;;4956930;28;20824;-75
2022/03/29 11:48:27;;;;;;;1.30;1.20;;;19.80;43.50;;;;;;4956857;28;20935;-76
2022/03/29 11:50:55;;;;;;;1.63;1.50;;;19.50;43.70;;;;;;4956580;28;21058;-76
2022/03/29 11:53:23;;;;;;;1.50;1.40;;;19.40;43.80;;;;;;4956646;28;20454;-75
2022/03/29 11:55:57;;;;;;;1.40;1.30;;;19.80;44.00;;;;;;4956392;28;20458;-75
2022/03/29 11:58:25;;;;;;;1.80;1.70;;;20.20;43.20;;;;;;4957164;28;21045;-74
2022/03/29 12:00:52;;;;;;;1.53;1.43;;;19.80;43.80;;;;;;4956513;28;20495;-74
2022/03/29 12:03:29;;;;;;;1.60;1.50;;;19.60;44.00;;;;;;4957212;28;20439;-74
2022/03/29 12:06:11;;;;;;;1.73;1.63;;;19.60;43.90;;;;;;4957202;28;20997;-75
2022/03/29 12:08:51;;;;;;;1.50;1.40;;;19.70;43.60;;;;;;4957008;28;20442;-75
2022/03/29 12:11:20;;;;;;;1.70;1.60;;;19.50;44.50;;;;;;4956016;28;20990;-75
2022/03/29 12:13:48;;;;;;;1.67;1.57;;;19.40;44.80;;;;;;4956500;28;20446;-75
2022/03/29 12:16:17;;;;;;;1.83;1.73;;;19.20;44.80;;;;;;4956555;28;20800;-73
2022/03/29 12:18:45;;;;;;;1.83;1.73;;;19.00;45.00;;;;;;4956679;28;20446;-75
2022/03/29 12:21:13;;;;;;;1.50;1.40;;;19.40;45.50;;;;;;4955963;28;20495;-75
2022/03/29 12:23:41;;;;;;;2.33;1.57;;;19.70;44.10;;;;;;4955803;28;20459;-74
2022/03/29 12:26:09;;;;;;;1.33;1.23;;;20.00;44.60;;;;;;4955505;28;20942;-74
2022/03/29 12:28:37;;;;;;;1.00;0.90;;;20.10;39.60;;;;;;4957806;28;20454;-74
2022/03/29 12:31:08;;;;;;;1.40;1.03;;;20.20;37.00;;;;;;4959726;28;20466;-74
2022/03/29 12:33:36;;;;;;;1.20;1.10;;;20.30;36.30;;;;;;4959524;28;20482;-75
2022/03/29 12:36:07;;;;;;;1.20;1.10;;;20.40;35.80;;;;;;4959979;28;20455;-76
2022/03/29 12:38:45;;;;;;;1.13;1.00;;;20.60;36.20;;;;;;4961036;28;20439;-77
2022/03/29 12:41:14;;;;;;;1.10;1.00;;;20.60;34.80;;;;;;4958484;28;21031;-74
2022/03/29 12:43:52;;;;;;;1.67;1.23;;;20.50;35.90;;;;;;4959112;28;20454;-74
2022/03/29 12:46:20;;;;;;;1.23;1.13;;;20.60;37.30;;;;;;4958786;28;20439;-73
2022/03/29 12:48:48;;;;;;;1.30;1.20;;;20.60;36.90;;;;;;4958510;28;20947;-75
2022/03/29 12:51:15;;;;;;;1.47;1.20;;;20.60;35.70;;;;;;4958692;28;20470;-75
2022/03/29 12:53:54;;;;;;;1.20;1.03;;;20.50;34.90;;;;;;4958925;28;20461;-74
2022/03/29 12:56:28;;;;;;;1.43;1.33;;;20.50;35.60;;;;;;4959548;28;20435;-76
2022/03/29 12:58:56;;;;;;;1.47;1.37;;;20.20;34.20;;;;;;4960350;28;20442;-76
2022/03/29 13:01:28;;;;;;;1.27;1.07;;;20.00;35.60;;;;;;4959632;28;20491;-75
2022/03/29 13:04:05;;;;;;;1.93;1.23;;;19.70;35.10;;;;;;4959994;28;20453;-75
2022/03/29 13:06:39;;;;;;;1.17;1.00;;;19.70;36.50;;;;;;4959304;28;20503;-75
2022/03/29 13:09:06;;;;;;;1.30;1.10;;;19.70;35.80;;;;;;4959153;28;20463;-74
2022/03/29 13:11:32;;;;;;;1.30;1.20;;;19.70;36.50;;;;;;4959158;28;20458;-74
2022/03/29 13:14:05;;;;;;;1.53;1.20;;;19.50;36.60;;;;;;4959491;28;20471;-76
2022/03/29 13:16:32;;;;;;;1.13;1.03;;;19.30;37.10;;;;;;4959180;28;20455;-75
2022/03/29 13:18:59;;;;;;;1.20;0.90;;;19.50;36.40;;;;;;4959157;28;20462;-74
2022/03/29 13:21:27;;;;;;;1.87;1.10;;;19.60;36.80;;;;;;4958925;28;20561;-75
2022/03/29 13:23:56;;;;;;;1.20;1.10;;;19.50;36.70;;;;;;4958010;28;20455;-74
2022/03/29 13:26:25;;;;;;;1.33;1.20;;;19.80;36.80;;;;;;4958192;28;20981;-75
2022/03/29 13:28:52;;;;;;;1.10;1.00;;;20.10;35.50;;;;;;4958570;28;20483;-75
2022/03/29 13:31:23;;;;;;;1.30;1.20;;;20.30;35.30;;;;;;4958580;28;20526;-74
2022/03/29 13:33:52;;;;;;;1.30;1.20;;;20.60;35.20;;;;;;4959328;28;20792;-74
2022/03/29 13:36:20;;;;;;;1.10;1.00;;;20.70;36.10;;;;;;4958748;28;20462;-75
2022/03/29 13:38:49;;;;;;;1.40;1.10;;;20.50;35.50;;;;;;4958753;28;20455;-75
2022/03/29 13:41:16;;;;;;;1.10;1.00;;;20.20;34.90;;;;;;4959182;28;20537;-75
2022/03/29 13:43:43;;;;;;;2.53;1.27;;;20.20;34.60;;;;;;4958964;28;20506;-74
2022/03/29 13:46:12;;;;;;;1.20;1.10;;;20.10;34.70;;;;;;4961436;28;20451;-75
2022/03/29 13:48:40;;;;;;;1.47;1.37;;;20.00;35.10;;;;;;4959442;28;20841;-75
2022/03/29 13:51:09;;;;;;;1.03;0.93;;;20.10;35.30;;;;;;4958279;28;20525;-75
2022/03/29 13:53:36;;;;;;;1.23;1.13;;;19.90;35.10;;;;;;4957828;28;20454;-74
2022/03/29 13:56:03;;;;;;;1.30;1.20;;;20.00;35.30;;;;;;4957128;28;20455;-75
2022/03/29 13:58:31;;;;;;;1.40;1.30;;;20.20;36.50;;;;;;4956893;28;20580;-74
2022/03/29 14:00:59;;;;;;;1.97;1.30;;;20.50;34.70;;;;;;4956893;28;20502;-75
2022/03/29 14:03:28;;;;;;;1.30;1.00;;;20.50;34.70;;;;;;4956788;28;20514;-74
2022/03/29 14:05:57;;;;;;;1.20;1.10;;;20.50;34.00;;;;;;4956705;28;20447;-78
2022/03/29 14:08:27;;;;;;;1.87;1.20;;;20.70;34.60;;;;;;4957115;28;20451;-74
2022/03/29 14:10:54;;;;;;;2.90;1.23;;;20.90;34.30;;;;;;4956571;28;20470;-75
2022/03/29 14:13:21;;;;;;;1.50;1.40;;;21.00;33.20;;;;;;4956705;29;20450;-74
2022/03/29 14:15:48;;;;;;;1.67;1.10;;;21.20;33.50;;;;;;4956601;28;20458;-75
2022/03/29 14:18:15;;;;;;;1.30;1.20;;;21.40;34.30;;;;;;4956622;28;20484;-75
2022/03/29 14:20:42;;;;;;;1.40;1.30;;;21.60;32.80;;;;;;4957243;28;20495;-76
2022/03/29 14:23:11;;;;;;;3.50;1.30;;;21.30;32.40;;;;;;4957450;28;20458;-75
2022/03/29 14:25:39;;;;;;;1.40;1.30;;;20.90;33.10;;;;;;4956505;28;20455;-75
2022/03/29 14:28:07;;;;;;;1.67;1.30;;;20.80;33.50;;;;;;4956331;28;20522;-75
2022/03/29 14:30:35;;;;;;;1.40;1.30;;;20.90;33.90;;;;;;4956178;28;20442;-75
2022/03/29 14:33:01;;;;;;;1.80;1.27;;;21.10;33.70;;;;;;4956818;28;20470;-75
2022/03/29 14:35:28;;;;;;;1.70;1.40;;;21.20;34.10;;;;;;4956584;28;20455;-74
2022/03/29 14:37:55;;;;;;;1.20;1.00;;;21.20;33.60;;;;;;4956629;28;20451;-74
2022/03/29 14:40:24;;;;;;;1.43;1.33;;;21.20;33.70;;;;;;4956360;28;20502;-75
2022/03/29 14:42:52;;;;;;;1.40;1.30;;;21.20;33.60;;;;;;4956259;28;20454;-75
2022/03/29 14:45:19;;;;;;;1.40;1.30;;;21.20;33.10;;;;;;4956976;28;20486;-75
2022/03/29 14:47:46;;;;;;;2.77;1.40;;;20.60;33.30;;;;;;4956589;28;21042;-73
2022/03/29 14:50:16;;;;;;;1.50;1.23;;;20.40;33.90;;;;;;4956012;28;20451;-75
2022/03/29 14:52:44;;;;;;;1.87;1.67;;;20.20;34.40;;;;;;4956193;28;20526;-74
2022/03/29 14:55:15;;;;;;;1.90;1.40;;;19.90;34.30;;;;;;4956094;28;20462;-76
2022/03/29 14:57:44;;;;;;;3.23;1.40;;;19.80;34.80;;;;;;4956372;28;20455;-75
2022/03/29 15:00:13;;;;;;;1.40;1.30;;;19.90;34.60;;;;;;4956205;28;20491;-74
2022/03/29 15:02:40;;;;;;;1.47;1.37;;;19.70;34.60;;;;;;4955153;28;20491;-75
2022/03/29 15:05:09;;;;;;;1.37;1.27;;;19.70;34.90;;;;;;4955785;28;20486;-75
2022/03/29 15:07:35;;;;;;;1.27;1.17;;;19.70;34.90;;;;;;4957016;28;20452;-74
2022/03/29 15:10:03;;;;;;;1.70;1.40;;;19.80;35.20;;;;;;4955391;28;20998;-74
2022/03/29 15:12:30;;;;;;;1.30;1.20;;;19.70;34.80;;;;;;4955096;28;20982;-74
2022/03/29 15:14:58;;;;;;;2.17;1.80;;;19.60;35.00;;;;;;5065140;23;20506;-73
2022/03/29 15:17:25;;;;;;;2.10;1.60;;;19.70;35.30;;;;;;4955473;28;20447;-73
2022/03/29 15:19:52;;;;;;;3.47;1.80;;;19.80;35.70;;;;;;4955508;28;20521;-74
2022/03/29 15:22:19;;;;;;;1.50;1.23;;;19.30;36.70;;;;;;4955871;28;20522;-74
2022/03/29 15:24:51;;;;;;;3.20;1.50;;;19.10;36.40;;;;;;4955436;28;20471;-73
2022/03/29 15:27:18;;;;;;;2.63;1.57;;;18.70;37.50;;;;;;4955593;28;20442;-73
2022/03/29 15:29:45;;;;;;;2.47;1.40;;;18.60;37.70;;;;;;4955429;28;20462;-74
2022/03/29 15:32:13;;;;;;;1.60;1.30;;;18.70;38.40;;;;;;4955076;28;20884;-74
2022/03/29 15:34:40;;;;;;;1.50;1.30;;;18.50;38.30;;;;;;4955378;28;20471;-74
2022/03/29 15:37:09;;;;;;;1.53;1.43;;;18.00;39.10;;;;;;4955473;28;20451;-74
2022/03/29 15:39:36;;;;;;;1.80;1.30;;;17.90;39.40;;;;;;4955354;28;20525;-75
2022/03/29 15:42:07;;;;;;;2.23;1.50;;;17.80;40.50;;;;;;4955500;28;20482;-74
2022/03/29 15:44:35;;;;;;;2.00;1.60;;;17.80;40.40;;;;;;4955003;28;20471;-74
2022/03/29 15:47:01;;;;;;;2.53;1.33;;;17.90;40.80;;;;;;4955265;28;20514;-74
2022/03/29 15:49:30;;;;;;;1.40;1.20;;;17.90;39.80;;;;;;4954950;28;21005;-74
2022/03/29 15:51:57;;;;;;;1.50;1.40;;;17.80;39.20;;;;;;4955403;28;20454;-74
2022/03/29 15:54:24;;;;;;;1.60;1.50;;;17.90;39.40;;;;;;4955364;28;20486;-74
2022/03/29 15:56:52;;;;;;;1.60;1.50;;;18.20;39.70;;;;;;4954875;28;20869;-74
2022/03/29 15:59:19;;;;;;;1.60;1.20;;;18.40;39.10;;;;;;4954813;28;20469;-74